Other Surface Observations
Issued by NWS Great Falls, MT

Home | Current Version | Previous Version | Text Only | Print | Product List | Glossary On
Versions: 1 2 3 4 5 6 7 8 9 10 11 12 13 14 15 16 17 18 19 20 21 22 23 24 25 26 27 28 29 30 31 32 33 34 35 36 37 38 39 40 41 42 43 44 45 46 47 48 49 50
899
SXUS55 KTFX 221406
OSOTFX

AREA AWOS OBSERVATIONS
NATIONAL WEATHER SERVICE GREAT FALLS MT
0805 AM MDT Tue Aug 22 2017

METAR K6S8 221355Z AUTO 22003KT 15SM 11/03 A3018 RMK A01 T01110027
METAR K7S0 221355Z AUTO 27000KT 15SM 10/07 A3019 RMK A01 T01000072
METAR K7S0 221255Z AUTO 27000KT 40SM 07/04 A3018 RMK A01 T00660038
METAR K9S5 221355Z AUTO 20000KT 15SM 07/03 A3020 RMK A01 T00720033
METAR KRPX 221255Z AUTO 19007KT 40SM 09/M02 A3010 RMK A01 T00941016
METAR KTHM 221255Z AUTO 21000KT 40SM 08/03 A3017 RMK A01 T00770033



USA.gov is the U.S. government's official web portal to all federal, state and local government web resources and services.